createdAt,value
2022-09-16T00:01:14.221Z,99042.69
2022-09-16T00:02:47.113Z,99041.84
2022-09-16T00:04:19.150Z,99046.06
2022-09-16T00:05:52.864Z,99045.09
2022-09-16T00:07:24.990Z,99038.59
2022-09-16T00:09:01.271Z,99041.31
2022-09-16T00:10:33.370Z,99035.78
2022-09-16T00:12:06.917Z,99041.13
2022-09-16T00:13:39.116Z,99026.66
2022-09-16T00:15:11.662Z,99033.91
2022-09-16T00:16:43.698Z,99032.66
2022-09-16T00:18:15.745Z,99032.84
2022-09-16T00:19:47.859Z,99025.28
2022-09-16T00:21:19.852Z,99029.19
2022-09-16T00:22:51.981Z,99020.66
2022-09-16T00:24:23.950Z,99021.72
2022-09-16T00:25:56.080Z,99031.50
2022-09-16T00:27:28.176Z,99017.00
2022-09-16T00:29:00.236Z,99020.47
2022-09-16T00:30:32.263Z,99024.66
2022-09-16T00:32:04.342Z,99030.66
2022-09-16T00:33:36.435Z,99023.50
2022-09-16T00:35:08.687Z,99025.06
2022-09-16T00:36:40.746Z,99019.81
2022-09-16T00:38:13.533Z,99026.78
2022-09-16T00:39:48.754Z,99024.25
2022-09-16T00:41:28.057Z,99022.59
2022-09-16T00:43:00.663Z,99021.72
2022-09-16T00:45:00.731Z,99017.31
2022-09-16T00:46:45.452Z,99014.47
2022-09-16T00:48:21.376Z,99025.06
2022-09-16T00:49:53.841Z,99022.34
2022-09-16T00:51:25.820Z,99031.91
2022-09-16T00:53:02.398Z,99013.22
2022-09-16T00:54:35.981Z,99021.28
2022-09-16T00:56:10.397Z,99026.56
2022-09-16T00:57:42.723Z,99010.88
2022-09-16T00:59:18.127Z,99013.31
2022-09-16T01:00:51.089Z,99021.09
2022-09-16T01:02:24.145Z,99020.88
2022-09-16T01:03:58.258Z,99018.16
2022-09-16T01:05:30.351Z,99022.44
2022-09-16T01:07:02.488Z,99030.31
2022-09-16T01:08:34.530Z,99029.72
2022-09-16T01:10:07.006Z,99033.28
2022-09-16T01:11:39.005Z,99037.69
2022-09-16T01:13:13.209Z,99036.72
2022-09-16T01:14:54.201Z,99034.34
2022-09-16T01:16:33.215Z,99034.75
2022-09-16T01:18:19.446Z,99048.59
2022-09-16T01:20:09.867Z,99043.03
2022-09-16T01:21:46.245Z,99039.78
2022-09-16T01:23:54.083Z,99041.97
2022-09-16T01:26:03.589Z,99039.75
2022-09-16T01:28:07.717Z,99040.41
2022-09-16T01:30:04.871Z,99035.13
2022-09-16T01:31:36.892Z,99030.91
2022-09-16T01:33:31.935Z,99041.00
2022-09-16T01:35:10.690Z,99040.06
2022-09-16T01:36:48.833Z,99043.63
2022-09-16T01:40:19.651Z,99049.63
2022-09-16T01:42:05.878Z,99051.63
2022-09-16T01:44:09.584Z,99049.00
2022-09-16T01:45:47.704Z,99057.09
2022-09-16T01:47:46.719Z,99063.63
2022-09-16T01:49:21.488Z,99064.44
2022-09-16T01:51:01.378Z,99078.31
2022-09-16T01:53:12.966Z,99075.59
2022-09-16T01:55:04.086Z,99076.53
2022-09-16T01:56:47.151Z,99080.63
2022-09-16T01:58:21.936Z,99066.03
2022-09-16T02:00:01.074Z,99057.94
2022-09-16T02:01:53.009Z,99059.59
2022-09-16T02:03:30.411Z,99049.09
2022-09-16T02:05:06.803Z,99047.19
2022-09-16T02:06:39.393Z,99049.91
2022-09-16T02:09:52.238Z,99051.28
2022-09-16T02:11:24.885Z,99049.63
2022-09-16T02:13:04.811Z,99051.72
2022-09-16T02:14:41.570Z,99060.13
2022-09-16T02:16:31.918Z,99057.16
2022-09-16T02:18:11.305Z,99078.19
2022-09-16T02:20:02.520Z,99084.19
2022-09-16T02:21:38.891Z,99080.00
2022-09-16T02:23:21.908Z,99083.44
2022-09-16T02:24:54.031Z,99080.53
2022-09-16T02:26:30.576Z,99083.88
2022-09-16T02:28:05.888Z,99080.19
2022-09-16T02:29:47.765Z,99078.94
2022-09-16T02:31:26.057Z,99080.16
2022-09-16T02:33:02.729Z,99077.09
2022-09-16T02:34:44.248Z,99082.75
2022-09-16T02:36:21.745Z,99075.47
2022-09-16T02:38:05.054Z,99090.81
2022-09-16T02:39:39.732Z,99081.03
2022-09-16T02:41:15.050Z,99083.09
2022-09-16T02:44:26.671Z,99080.84
2022-09-16T02:46:26.316Z,99088.31
2022-09-16T02:48:05.631Z,99069.06
2022-09-16T02:49:56.677Z,99073.59
2022-09-16T02:51:58.448Z,99072.72
2022-09-16T02:53:46.726Z,99069.16
2022-09-16T02:55:23.491Z,99071.53
2022-09-16T02:56:56.387Z,99062.72
2022-09-16T02:58:28.400Z,99055.66
2022-09-16T03:00:00.362Z,99058.28
2022-09-16T03:01:34.490Z,99064.28
2022-09-16T03:03:06.628Z,99066.78
2022-09-16T03:04:38.760Z,99064.88
2022-09-16T03:06:15.449Z,99065.72
2022-09-16T03:07:47.492Z,99075.53
2022-09-16T03:09:26.745Z,99065.09
2022-09-16T03:11:04.768Z,99066.78
2022-09-16T03:12:53.927Z,99072.50
2022-09-16T03:14:44.645Z,99082.75
2022-09-16T03:16:23.185Z,99083.94
2022-09-16T03:18:21.769Z,99080.56
2022-09-16T03:19:59.892Z,99073.66
2022-09-16T03:22:30.651Z,99066.25
2022-09-16T03:24:10.027Z,99083.50
2022-09-16T03:25:51.933Z,99086.00
2022-09-16T03:27:32.290Z,99085.03
2022-09-16T03:29:36.685Z,99081.47
2022-09-16T03:31:14.070Z,99081.34
2022-09-16T03:32:59.128Z,99090.09
2022-09-16T03:34:36.447Z,99086.59
2022-09-16T03:36:10.169Z,99088.41
2022-09-16T03:37:42.505Z,99084.66
2022-09-16T03:39:14.917Z,99084.16
2022-09-16T03:40:48.035Z,99083.75
2022-09-16T03:42:21.516Z,99091.34
2022-09-16T03:44:03.537Z,99085.59
2022-09-16T03:45:36.157Z,99098.13
2022-09-16T03:47:08.936Z,99099.94
2022-09-16T03:48:40.896Z,99095.63
2022-09-16T03:50:13.016Z,99094.75
2022-09-16T03:51:45.050Z,99090.47
2022-09-16T03:53:17.206Z,99085.09
2022-09-16T03:54:49.239Z,99091.94
2022-09-16T03:56:23.508Z,99089.06
2022-09-16T03:57:56.092Z,99081.91
2022-09-16T03:59:28.950Z,99071.91
2022-09-16T04:01:01.118Z,99066.31
2022-09-16T04:02:33.512Z,99074.69
2022-09-16T04:04:05.868Z,99085.09
2022-09-16T04:05:37.885Z,99091.09
2022-09-16T04:07:09.862Z,99100.25
2022-09-16T04:08:44.537Z,99098.59
2022-09-16T04:10:16.680Z,99097.09
2022-09-16T04:11:48.867Z,99084.66
2022-09-16T04:13:20.966Z,99079.72
2022-09-16T04:14:53.036Z,99073.00
2022-09-16T04:18:02.353Z,99069.09
2022-09-16T04:19:34.476Z,99067.53
2022-09-16T04:21:06.597Z,99066.78
2022-09-16T04:22:38.595Z,99059.97
2022-09-16T04:24:13.154Z,99067.97
2022-09-16T04:25:45.582Z,99085.56
2022-09-16T04:27:17.607Z,99095.22
2022-09-16T04:28:49.726Z,99096.09
2022-09-16T04:30:22.312Z,99099.56
2022-09-16T04:31:55.546Z,99096.94
2022-09-16T04:33:28.436Z,99095.13
2022-09-16T04:35:00.495Z,99094.63
2022-09-16T04:36:34.162Z,99098.22
2022-09-16T04:38:06.489Z,99098.09
2022-09-16T04:39:38.495Z,99094.50
2022-09-16T04:41:14.967Z,99093.47
2022-09-16T04:42:50.821Z,99098.38
2022-09-16T04:44:22.832Z,99093.13
2022-09-16T04:47:29.666Z,99103.09
2022-09-16T04:49:01.819Z,99099.38
2022-09-16T04:50:33.906Z,99092.06
2022-09-16T04:52:06.124Z,99090.94
2022-09-16T04:53:39.879Z,99087.13
2022-09-16T04:55:11.901Z,99082.16
2022-09-16T04:56:43.865Z,99090.03
2022-09-16T04:58:16.115Z,99082.38
2022-09-16T04:59:48.158Z,99091.91
2022-09-16T05:01:22.711Z,99083.97
2022-09-16T05:02:55.245Z,99082.56
2022-09-16T05:04:27.520Z,99083.81
2022-09-16T05:06:07.609Z,99093.06
2022-09-16T05:07:40.187Z,99079.78
2022-09-16T05:09:13.008Z,99080.88
2022-09-16T05:10:45.052Z,99078.72
2022-09-16T05:12:17.136Z,99079.22
2022-09-16T05:13:49.236Z,99068.53
2022-09-16T05:15:21.781Z,99078.03
2022-09-16T05:16:54.352Z,99081.13
2022-09-16T05:18:26.386Z,99084.38
2022-09-16T05:19:58.920Z,99083.81
2022-09-16T05:21:34.311Z,99075.47
2022-09-16T05:23:06.995Z,99074.34
2022-09-16T05:24:39.228Z,99075.75
2022-09-16T05:26:17.167Z,99080.50
2022-09-16T05:27:49.489Z,99077.59
2022-09-16T05:29:22.447Z,99076.59
2022-09-16T05:30:54.934Z,99073.28
2022-09-16T05:32:28.051Z,99080.53
2022-09-16T05:34:02.507Z,99080.97
2022-09-16T05:35:34.740Z,99087.09
2022-09-16T05:37:07.115Z,99077.88
2022-09-16T05:38:39.456Z,99079.56
2022-09-16T05:40:11.703Z,99076.63
2022-09-16T05:41:43.950Z,99086.97
2022-09-16T05:43:16.383Z,99084.19
2022-09-16T05:44:48.505Z,99087.53
2022-09-16T05:46:22.181Z,99082.09
2022-09-16T05:47:54.672Z,99088.38
2022-09-16T05:49:27.068Z,99092.97
2022-09-16T05:51:01.809Z,99092.13
2022-09-16T05:52:33.804Z,99091.69
2022-09-16T05:54:05.849Z,99090.16
2022-09-16T05:55:38.051Z,99089.47
2022-09-16T05:57:10.097Z,99083.72
2022-09-16T05:58:43.032Z,99090.16
2022-09-16T06:00:16.017Z,99092.09
2022-09-16T06:01:48.207Z,99086.97
2022-09-16T06:03:20.257Z,99088.91
2022-09-16T06:04:52.970Z,99087.22
2022-09-16T06:06:36.356Z,99091.56
2022-09-16T06:08:08.781Z,99087.50
2022-09-16T06:09:42.180Z,99091.00
2022-09-16T06:11:14.537Z,99087.50
2022-09-16T06:12:47.128Z,99086.66
2022-09-16T06:14:23.373Z,99080.53
2022-09-16T06:15:55.534Z,99084.88
2022-09-16T06:17:27.858Z,99079.41
2022-09-16T06:19:05.276Z,99076.38
2022-09-16T06:20:37.316Z,99076.38
2022-09-16T06:22:09.630Z,99080.53
2022-09-16T06:23:41.762Z,99075.94
2022-09-16T06:25:13.902Z,99082.78
2022-09-16T06:26:46.910Z,99089.47
2022-09-16T06:28:19.048Z,99084.03
2022-09-16T06:29:51.102Z,99087.22
2022-09-16T06:31:25.436Z,99084.31
2022-09-16T06:32:57.996Z,99085.97
2022-09-16T06:34:30.214Z,99080.41
2022-09-16T06:36:10.876Z,99082.53
2022-09-16T06:37:42.803Z,99082.41
2022-09-16T06:39:16.312Z,99081.00
2022-09-16T06:40:49.541Z,99093.28
2022-09-16T06:42:21.354Z,99092.97
2022-09-16T06:43:53.491Z,99105.41
2022-09-16T06:47:03.914Z,99101.75
2022-09-16T06:48:36.371Z,99109.97
2022-09-16T06:50:08.809Z,99112.06
2022-09-16T06:51:40.975Z,99112.47
2022-09-16T06:53:13.027Z,99109.41
2022-09-16T06:54:45.156Z,99106.88
2022-09-16T06:56:19.335Z,99105.22
2022-09-16T06:57:51.530Z,99106.44
2022-09-16T06:59:23.735Z,99108.38
2022-09-16T07:00:56.804Z,99104.69
2022-09-16T07:02:29.472Z,99109.97
2022-09-16T07:04:10.988Z,99119.44
2022-09-16T07:05:43.194Z,99119.44
2022-09-16T07:07:15.926Z,99126.13
2022-09-16T07:08:48.258Z,99124.88
2022-09-16T07:10:20.649Z,99126.94
2022-09-16T07:11:52.742Z,99131.81
2022-09-16T07:13:25.260Z,99131.38
2022-09-16T07:14:57.284Z,99135.97
2022-09-16T07:16:29.678Z,99132.72
2022-09-16T07:18:02.283Z,99129.94
2022-09-16T07:19:34.427Z,99132.13
2022-09-16T07:21:21.726Z,99136.56
2022-09-16T07:22:55.173Z,99133.22
2022-09-16T07:24:27.593Z,99146.06
2022-09-16T07:26:12.527Z,99147.13
2022-09-16T07:27:44.679Z,99142.66
2022-09-16T07:29:21.920Z,99143.72
2022-09-16T07:30:54.345Z,99144.53
2022-09-16T07:32:26.694Z,99149.31
2022-09-16T07:34:04.329Z,99145.38
2022-09-16T07:35:36.896Z,99139.09
2022-09-16T07:37:09.406Z,99144.25
2022-09-16T07:38:41.617Z,99143.81
2022-09-16T07:40:14.282Z,99134.41
2022-09-16T07:41:48.908Z,99133.94
2022-09-16T07:43:21.434Z,99133.63
2022-09-16T07:44:53.702Z,99134.06
2022-09-16T07:46:30.292Z,99128.41
2022-09-16T07:48:03.304Z,99132.59
2022-09-16T07:49:35.441Z,99137.91
2022-09-16T07:51:13.221Z,99141.25
2022-09-16T07:54:37.275Z,99148.03
2022-09-16T07:56:13.182Z,99141.84
2022-09-16T07:57:45.654Z,99141.34
2022-09-16T07:59:19.839Z,99143.00
2022-09-16T08:00:51.976Z,99150.25
2022-09-16T08:02:24.303Z,99150.72
2022-09-16T08:03:56.820Z,99149.44
2022-09-16T08:05:29.134Z,99139.38
2022-09-16T08:07:01.214Z,99143.53
2022-09-16T08:08:36.063Z,99142.09
2022-09-16T08:10:08.407Z,99130.31
2022-09-16T08:11:41.062Z,99135.19
2022-09-16T08:13:13.299Z,99129.25
2022-09-16T08:14:45.325Z,99123.66
2022-09-16T08:16:20.009Z,99123.69
2022-09-16T08:17:52.091Z,99127.50
2022-09-16T08:19:24.206Z,99132.66
2022-09-16T08:20:56.368Z,99133.69
2022-09-16T08:22:28.362Z,99133.41
2022-09-16T08:24:00.510Z,99134.78
2022-09-16T08:25:33.328Z,99130.97
2022-09-16T08:27:05.642Z,99132.03
2022-09-16T08:28:50.926Z,99125.94
2022-09-16T08:30:23.341Z,99122.31
2022-09-16T08:31:55.848Z,99104.84
2022-09-16T08:33:28.915Z,99114.66
2022-09-16T08:35:01.040Z,99123.03
2022-09-16T08:36:36.313Z,99119.69
2022-09-16T08:38:08.252Z,99120.38
2022-09-16T08:39:41.429Z,99116.56
2022-09-16T08:41:32.390Z,99131.88
2022-09-16T08:43:40.709Z,99127.25
2022-09-16T08:45:24.974Z,99134.91
2022-09-16T08:47:02.608Z,99134.41
2022-09-16T08:48:40.584Z,99128.06
2022-09-16T08:50:25.039Z,99124.25
2022-09-16T08:51:59.742Z,99125.13
2022-09-16T08:53:45.173Z,99117.31
2022-09-16T08:55:26.248Z,99108.50
2022-09-16T08:57:01.619Z,99102.34
2022-09-16T08:58:43.189Z,99093.84
2022-09-16T09:00:18.128Z,99100.16
2022-09-16T09:02:03.981Z,99098.66
2022-09-16T09:03:41.423Z,99105.81
2022-09-16T09:06:52.091Z,99097.97
2022-09-16T09:08:27.306Z,99098.16
2022-09-16T09:10:25.192Z,99093.84
2022-09-16T09:12:00.355Z,99101.16
2022-09-16T09:14:00.766Z,99096.53
2022-09-16T09:15:38.873Z,99096.53
2022-09-16T09:17:21.920Z,99097.72
2022-09-16T09:19:15.217Z,99092.59
2022-09-16T09:21:15.245Z,99100.13
2022-09-16T09:22:56.818Z,99102.25
2022-09-16T09:24:53.445Z,99110.91
2022-09-16T09:26:42.627Z,99120.94
2022-09-16T09:28:40.112Z,99117.78
2022-09-16T09:30:26.600Z,99109.78
2022-09-16T09:31:58.857Z,99117.66
2022-09-16T09:36:06.742Z,99114.00
2022-09-16T09:37:41.652Z,99117.03
2022-09-16T09:39:43.045Z,99120.34
2022-09-16T09:41:40.724Z,99106.84
2022-09-16T09:43:18.821Z,99123.31
2022-09-16T09:45:28.256Z,99113.53
2022-09-16T09:47:05.304Z,99113.53
2022-09-16T09:48:58.605Z,99115.22
2022-09-16T09:50:37.452Z,99120.69
2022-09-16T09:52:23.961Z,99131.50
2022-09-16T09:54:02.827Z,99134.66
2022-09-16T09:55:36.152Z,99123.81
2022-09-16T09:57:30.148Z,99126.94
2022-09-16T09:59:20.905Z,99128.59
2022-09-16T10:00:59.023Z,99133.19
2022-09-16T10:02:31.454Z,99129.53
2022-09-16T10:04:04.415Z,99127.50
2022-09-16T10:05:36.765Z,99124.31
2022-09-16T10:07:09.674Z,99112.63
2022-09-16T10:08:49.584Z,99114.78
2022-09-16T10:10:27.332Z,99111.22
2022-09-16T10:12:00.037Z,99115.50
2022-09-16T10:13:32.481Z,99111.66
2022-09-16T10:15:05.468Z,99106.94
2022-09-16T10:16:38.652Z,99112.09
2022-09-16T10:18:30.713Z,99111.09
2022-09-16T10:20:07.249Z,99111.25
2022-09-16T10:21:48.002Z,99105.56
2022-09-16T10:23:29.075Z,99109.75
2022-09-16T10:25:24.751Z,99117.88
2022-09-16T10:27:00.393Z,99126.16
2022-09-16T10:28:33.675Z,99108.47
2022-09-16T10:30:15.701Z,99118.50
2022-09-16T10:31:48.705Z,99110.97
2022-09-16T10:33:25.310Z,99112.00
2022-09-16T10:34:57.890Z,99122.91
2022-09-16T10:36:34.205Z,99114.13
2022-09-16T10:38:39.008Z,99116.09
2022-09-16T10:40:17.151Z,99123.38
2022-09-16T10:41:50.765Z,99122.03
2022-09-16T10:43:23.562Z,99126.66
2022-09-16T10:45:02.645Z,99133.00
2022-09-16T10:46:34.758Z,99130.94
2022-09-16T10:48:14.772Z,99131.91
2022-09-16T10:49:50.299Z,99126.06
2022-09-16T10:51:27.897Z,99124.53
2022-09-16T10:53:00.131Z,99136.47
2022-09-16T10:54:32.559Z,99137.63
2022-09-16T10:56:07.126Z,99129.78
2022-09-16T10:57:44.926Z,99117.78
2022-09-16T10:59:17.791Z,99126.78
2022-09-16T11:01:06.082Z,99114.44
2022-09-16T11:02:54.205Z,99119.09
2022-09-16T11:04:41.712Z,99115.59
2022-09-16T11:06:45.743Z,99120.91
2022-09-16T11:08:39.476Z,99119.91
2022-09-16T11:10:38.559Z,99120.44
2022-09-16T11:12:16.821Z,99123.78
2022-09-16T11:13:55.295Z,99127.59
2022-09-16T11:15:36.525Z,99128.41
2022-09-16T11:17:21.506Z,99138.78
2022-09-16T11:19:02.318Z,99141.44
2022-09-16T11:20:37.694Z,99146.06
2022-09-16T11:22:32.460Z,99155.00
2022-09-16T11:24:27.455Z,99162.28
2022-09-16T11:26:05.697Z,99172.66
2022-09-16T11:27:46.181Z,99167.34
2022-09-16T11:29:39.573Z,99173.25
2022-09-16T11:31:30.217Z,99170.81
2022-09-16T11:34:56.418Z,99180.03
2022-09-16T11:36:42.776Z,99197.81
2022-09-16T11:38:27.009Z,99184.44
2022-09-16T11:40:20.373Z,99186.72
2022-09-16T11:42:05.477Z,99173.44
2022-09-16T11:44:03.698Z,99173.88
2022-09-16T11:46:01.040Z,99162.72
2022-09-16T11:47:53.259Z,99166.41
2022-09-16T11:49:34.373Z,99165.03
2022-09-16T11:51:45.599Z,99158.06
2022-09-16T11:53:42.304Z,99150.53
2022-09-16T11:55:47.790Z,99145.81
2022-09-16T11:57:25.426Z,99134.38
2022-09-16T11:59:13.787Z,99132.41
2022-09-16T12:00:47.789Z,99136.63
2022-09-16T12:04:21.073Z,99134.38
2022-09-16T12:05:55.137Z,99136.06
2022-09-16T12:07:27.154Z,99127.28
2022-09-16T12:09:14.773Z,99128.81
2022-09-16T12:10:50.542Z,99118.34
2022-09-16T12:12:38.825Z,99104.53
2022-09-16T12:14:15.905Z,99100.63
2022-09-16T12:16:00.327Z,99108.19
2022-09-16T12:17:35.128Z,99114.75
2022-09-16T12:19:23.075Z,99123.53
2022-09-16T12:21:14.900Z,99118.09
2022-09-16T12:22:52.042Z,99107.50
2022-09-16T12:24:27.676Z,99108.19
2022-09-16T12:26:13.616Z,99089.22
2022-09-16T12:27:53.088Z,99086.44
2022-09-16T12:29:48.972Z,99086.69
2022-09-16T12:33:08.368Z,99067.56
2022-09-16T12:34:49.941Z,99073.69
2022-09-16T12:36:29.854Z,99088.91
2022-09-16T12:38:02.577Z,99085.56
2022-09-16T12:39:35.006Z,99070.47
2022-09-16T12:41:23.007Z,99058.63
2022-09-16T12:43:46.406Z,99049.56
2022-09-16T12:45:49.427Z,99057.09
2022-09-16T12:47:39.579Z,99054.31
2022-09-16T12:49:29.748Z,99060.31
2022-09-16T12:51:23.011Z,99053.63
2022-09-16T12:53:31.869Z,99064.91
2022-09-16T12:55:25.765Z,99055.72
2022-09-16T12:57:19.885Z,99054.56
2022-09-16T12:59:10.479Z,99054.56
2022-09-16T13:01:10.469Z,99053.44
2022-09-16T13:02:51.195Z,99047.03
2022-09-16T13:04:31.600Z,99042.56
2022-09-16T13:06:07.982Z,99042.56
2022-09-16T13:07:40.887Z,99037.13
2022-09-16T13:09:25.967Z,99018.56
2022-09-16T13:11:20.021Z,99014.38
2022-09-16T13:12:53.209Z,99010.19
2022-09-16T13:14:48.147Z,99000.19
2022-09-16T13:16:37.431Z,99010.34
2022-09-16T13:18:15.757Z,99013.00
2022-09-16T13:19:52.150Z,99028.75
2022-09-16T13:21:29.986Z,99034.88
2022-09-16T13:23:27.921Z,99035.19
2022-09-16T13:25:23.119Z,99026.66
2022-09-16T13:26:55.904Z,99025.78
2022-09-16T13:28:38.726Z,99024.50
2022-09-16T13:30:13.573Z,99026.47
2022-09-16T13:33:29.131Z,99029.81
2022-09-16T13:35:04.914Z,99033.16
2022-09-16T13:36:37.216Z,99024.91
2022-09-16T13:38:15.222Z,99029.34
2022-09-16T13:39:50.322Z,99042.31
2022-09-16T13:41:43.383Z,99030.13
2022-09-16T13:43:15.995Z,99036.13
2022-09-16T13:44:51.077Z,99028.72
2022-09-16T13:46:38.801Z,99029.78
2022-09-16T13:48:23.697Z,99026.00
2022-09-16T13:50:22.711Z,99033.69
2022-09-16T13:51:55.376Z,99031.16
2022-09-16T13:53:31.748Z,99030.03
2022-09-16T13:55:11.985Z,99041.47
2022-09-16T13:56:56.226Z,99042.00
2022-09-16T13:58:39.394Z,99042.56
2022-09-16T14:02:02.514Z,99040.28
2022-09-16T14:03:53.781Z,99043.78
2022-09-16T14:05:38.568Z,99042.09
2022-09-16T14:07:42.164Z,99050.56
2022-09-16T14:09:37.663Z,99049.44
2022-09-16T14:11:18.028Z,99050.97
2022-09-16T14:13:12.300Z,99054.44
2022-09-16T14:14:48.094Z,99051.09
2022-09-16T14:16:24.525Z,99038.50
2022-09-16T14:18:00.006Z,99027.91
2022-09-16T17:43:58.793Z,98877.75
2022-09-16T17:45:33.540Z,98873.41
2022-09-16T17:47:05.983Z,98873.00
2022-09-16T17:48:39.233Z,98875.94
2022-09-16T17:50:11.395Z,98873.00
2022-09-16T17:51:44.370Z,98873.59
2022-09-16T17:53:16.959Z,98869.41
2022-09-16T17:54:49.402Z,98873.47
2022-09-16T17:56:21.810Z,98870.13
2022-09-16T17:57:54.325Z,98871.53
2022-09-16T17:59:26.713Z,98884.50
2022-09-16T18:01:05.818Z,98884.78
2022-09-16T18:02:38.581Z,98877.41
2022-09-16T18:04:11.503Z,98889.25
2022-09-16T18:05:45.031Z,98891.22
2022-09-16T18:07:19.741Z,98889.38
2022-09-16T18:08:52.813Z,98900.41
2022-09-16T18:10:25.136Z,98904.31
2022-09-16T18:11:59.022Z,98904.38
2022-09-16T18:13:31.931Z,98898.25
2022-09-16T18:15:05.423Z,98895.75
2022-09-16T18:16:38.002Z,98903.38
2022-09-16T18:18:11.039Z,98902.41
2022-09-16T18:19:43.292Z,98907.09
2022-09-16T18:21:18.392Z,98907.09
2022-09-16T18:22:50.870Z,98903.22
2022-09-16T18:24:23.155Z,98908.19
2022-09-16T18:25:56.617Z,98909.84
2022-09-16T18:27:28.968Z,98909.50
2022-09-16T18:29:11.173Z,98912.81
2022-09-16T18:31:06.458Z,98912.50
2022-09-16T18:32:38.768Z,98915.94
2022-09-16T18:34:11.741Z,98916.19
2022-09-16T18:35:44.096Z,98908.09
2022-09-16T18:37:16.651Z,98904.72
2022-09-16T18:38:54.381Z,98899.19
2022-09-16T18:40:27.140Z,98902.50
2022-09-16T18:41:59.677Z,98910.72
2022-09-16T18:43:32.233Z,98916.06
2022-09-16T18:45:07.793Z,98921.00
2022-09-16T18:46:40.460Z,98918.13
2022-09-16T18:48:12.694Z,98922.69
2022-09-16T18:49:45.000Z,98926.31
2022-09-16T18:51:21.741Z,98920.66
2022-09-16T18:52:54.005Z,98927.84
2022-09-16T18:54:30.658Z,98926.06
2022-09-16T18:56:03.249Z,98917.91
2022-09-16T18:57:35.670Z,98910.94
2022-09-16T18:59:26.836Z,98912.38
2022-09-16T19:01:27.137Z,98918.03
2022-09-16T19:02:59.871Z,98913.38
2022-09-16T19:04:37.260Z,98913.19
2022-09-16T19:06:09.632Z,98912.47
2022-09-16T19:07:41.940Z,98915.94
2022-09-16T19:09:16.755Z,98915.50
2022-09-16T19:10:49.082Z,98910.81
2022-09-16T19:12:21.332Z,98911.78
2022-09-16T19:13:53.980Z,98910.22
2022-09-16T19:15:26.539Z,98911.06
2022-09-16T19:16:58.742Z,98907.84
2022-09-16T19:18:31.101Z,98907.34
2022-09-16T19:20:04.613Z,98916.56
2022-09-16T19:21:37.486Z,98917.91
2022-09-16T19:23:09.751Z,98926.75
2022-09-16T19:24:43.909Z,98926.31
2022-09-16T19:26:16.604Z,98923.88
2022-09-16T19:27:48.933Z,98925.94
2022-09-16T19:29:21.747Z,98923.16
2022-09-16T19:30:57.505Z,98924.75
2022-09-16T19:32:29.864Z,98928.94
2022-09-16T19:34:02.603Z,98939.47
2022-09-16T19:35:35.270Z,98932.50
2022-09-16T19:37:07.669Z,98930.13
2022-09-16T19:38:40.469Z,98929.16
2022-09-16T19:40:12.852Z,98930.13
2022-09-16T19:41:45.660Z,98917.06
2022-09-16T19:43:18.310Z,98918.16
2022-09-16T19:44:50.948Z,98913.97
2022-09-16T19:47:56.325Z,98897.44
2022-09-16T19:49:29.308Z,98898.63
2022-09-16T19:51:06.898Z,98892.66
2022-09-16T19:52:41.551Z,98896.69
2022-09-16T19:54:14.014Z,98891.19
2022-09-16T19:55:46.787Z,98897.84
2022-09-16T19:57:19.504Z,98902.63
2022-09-16T19:58:52.950Z,98897.63
2022-09-16T20:00:41.308Z,98896.19
2022-09-16T20:02:17.670Z,98885.97
2022-09-16T20:03:50.107Z,98885.03
2022-09-16T20:05:22.858Z,98892.81
2022-09-16T20:06:54.906Z,98887.31
2022-09-16T20:08:26.987Z,98895.09
2022-09-16T20:09:59.259Z,98900.47
2022-09-16T20:11:33.879Z,98904.53
2022-09-16T20:13:08.954Z,98900.56
2022-09-16T20:14:41.357Z,98901.75
2022-09-16T20:16:14.669Z,98907.16
2022-09-16T20:17:46.544Z,98906.91
2022-09-16T20:19:20.316Z,98903.81
2022-09-16T20:20:52.726Z,98905.94
2022-09-16T20:22:24.990Z,98901.25
2022-09-16T20:23:57.258Z,98897.56
2022-09-16T20:25:30.231Z,98888.69
2022-09-16T20:27:02.567Z,98891.34
2022-09-16T20:28:43.175Z,98891.22
2022-09-16T20:30:15.265Z,98885.84
2022-09-16T20:31:49.411Z,98887.31
2022-09-16T20:33:21.832Z,98890.88
2022-09-16T20:34:54.094Z,98891.59
2022-09-16T20:36:27.809Z,98902.00
2022-09-16T20:37:59.834Z,98900.09
2022-09-16T20:39:32.260Z,98902.63
2022-09-16T20:41:21.284Z,98903.56
2022-09-16T20:42:53.218Z,98910.47
2022-09-16T20:44:25.340Z,98918.94
2022-09-16T20:45:57.593Z,98920.34
2022-09-16T20:47:30.936Z,98923.31
2022-09-16T20:49:03.714Z,98920.47
2022-09-16T20:50:40.119Z,98931.31
2022-09-16T20:52:12.164Z,98923.53
2022-09-16T20:53:45.184Z,98920.59
2022-09-16T20:55:17.231Z,98919.53
2022-09-16T20:56:49.778Z,98918.69
2022-09-16T20:58:21.786Z,98931.94
2022-09-16T20:59:53.761Z,98940.19
2022-09-16T21:01:31.968Z,98940.28
2022-09-16T21:03:04.274Z,98945.16
2022-09-16T21:04:36.258Z,98947.91
2022-09-16T21:06:13.480Z,98941.56
2022-09-16T21:07:45.849Z,98944.28
2022-09-16T21:09:19.506Z,98946.19
2022-09-16T21:10:54.309Z,98953.50
2022-09-16T21:12:26.347Z,98958.34
2022-09-16T21:14:17.529Z,98950.56
2022-09-16T21:17:23.020Z,98928.31
2022-09-16T21:18:56.218Z,98936.84
2022-09-16T21:20:28.289Z,98942.63
2022-09-16T21:22:00.314Z,98943.81
2022-09-16T21:23:33.461Z,98945.84
2022-09-16T21:25:06.020Z,98938.97
2022-09-16T21:26:39.640Z,98928.47
2022-09-16T21:28:11.807Z,98927.00
2022-09-16T21:29:43.889Z,98928.41
2022-09-16T21:31:16.653Z,98932.94
2022-09-16T21:32:48.717Z,98923.59
2022-09-16T21:34:22.147Z,98914.97
2022-09-16T21:35:54.879Z,98912.34
2022-09-16T21:37:26.984Z,98912.78
2022-09-16T21:39:01.856Z,98922.56
2022-09-16T21:40:38.980Z,98922.78
2022-09-16T21:42:11.765Z,98920.16
2022-09-16T21:43:49.978Z,98922.88
2022-09-16T21:45:22.672Z,98924.88
2022-09-16T21:46:54.696Z,98924.97
2022-09-16T21:48:27.929Z,98916.06
2022-09-16T21:50:01.201Z,98915.63
2022-09-16T21:51:37.142Z,98906.31
2022-09-16T21:53:09.298Z,98905.88
2022-09-16T21:54:41.373Z,98906.00
2022-09-16T21:56:21.415Z,98901.47
2022-09-16T21:57:53.540Z,98903.13
2022-09-16T21:59:25.621Z,98905.78
2022-09-16T22:01:11.578Z,98901.16
2022-09-16T22:02:43.880Z,98900.75
2022-09-16T22:04:21.514Z,98892.88
2022-09-16T22:05:53.551Z,98890.69
2022-09-16T22:07:28.680Z,98887.19
2022-09-16T22:09:02.376Z,98884.78
2022-09-16T22:10:34.483Z,98878.72
2022-09-16T22:12:07.198Z,98879.44
2022-09-16T22:13:39.429Z,98874.19
2022-09-16T22:15:11.469Z,98869.66
2022-09-16T22:16:43.554Z,98858.00
2022-09-16T22:18:15.631Z,98857.16
2022-09-16T22:19:48.098Z,98851.78
2022-09-16T22:21:20.688Z,98846.03
2022-09-16T22:22:52.850Z,98850.00
2022-09-16T22:24:24.932Z,98843.09
2022-09-16T22:25:56.977Z,98855.38
2022-09-16T22:27:30.039Z,98856.22
2022-09-16T22:29:02.096Z,98864.00
2022-09-16T22:30:34.839Z,98865.88
2022-09-16T22:32:06.868Z,98862.28
2022-09-16T22:33:41.026Z,98867.22
2022-09-16T22:35:14.160Z,98865.22
2022-09-16T22:36:46.476Z,98863.31
2022-09-16T22:38:18.405Z,98861.44
2022-09-16T22:39:50.414Z,98863.09
2022-09-16T22:41:23.056Z,98864.06
2022-09-16T22:42:56.363Z,98856.28
2022-09-16T22:44:28.145Z,98865.72
2022-09-16T22:46:08.176Z,98862.38
2022-09-16T22:47:40.281Z,98862.59
2022-09-16T22:50:57.758Z,98870.69
2022-09-16T22:52:31.669Z,98874.06
2022-09-16T22:54:03.939Z,98865.56
2022-09-16T22:55:35.891Z,98860.41
2022-09-16T22:57:07.854Z,98854.94
2022-09-16T23:01:21.592Z,98868.34